Terminal Aerodrome Forecast
Issued by NWS Sioux Falls, SD

Home | Current Version | Previous Version | Text Only | Print | Product List | Glossary Off
Versions: 1 2 3 4 5 6 7 8 9 10 11 12 13 14 15 16

000
FTUS43 KFSD 300302 AAC
TAFSUX
TAF AMD
KSUX 300302Z 3003/3024 21007KT P6SM -SHRA SCT045 OVC200
      TEMPO 3003/3005 21015G25KT 6SM TSRA OVC045CB
     FM300500 11005KT P6SM BKN150
     FM301100 VRB03KT 4SM BR SCT060 OVC100
     FM301400 VRB04KT P6SM OVC120=

USA.gov is the U.S. government's official web portal to all federal, state and local government web resources and services.